Thursday, March 30, 2017, 2:27 PM EDT

KMUI, Muir Army Air Field / Indiantown

Location: Jonestown, PA, United States Lat: 40.433
Local Time: 2:27 PM EDT (18:27 GMT) Lon: -76.567
Time Zone: US/Eastern Elev: 488 ft

Show me the last for .
Show Decoded

2017-03-30 13:58 METAR KMUI 301758Z AUTO 00000KT 10SM OVC075 08/M03 A3018 RMK AO2 SLP226
                 T00751031 10079 20026 57021 $ =
2017-03-30 12:58 METAR KMUI 301658Z AUTO VRB04KT 10SM OVC080 08/M03 A3020 RMK AO2 SLP232
                 T00771028 $ =
2017-03-30 11:58 METAR KMUI 301558Z AUTO 13004KT 10SM SCT090 SCT100 BKN130 07/M03 A3022 RMK AO2
                 SLP239 T00711035 $ =
2017-03-30 10:58 METAR KMUI 301458Z AUTO 00000KT 10SM BKN120 06/M04 A3024 RMK AO2 SLP246
                 T00631037 55010 $ =
2017-03-30 09:58 METAR KMUI 301358Z AUTO VRB05KT 10SM FEW130 SCT150 05/M05 A3025 RMK AO2 SLP249
                 T00481048 $ =
2017-03-30 08:58 METAR KMUI 301258Z AUTO 10004KT 10SM BKN120 04/M04 A3025 RMK AO2 SLP249
                 T00401044 $ =
2017-03-30 07:58 METAR KMUI 301158Z AUTO 00000KT 10SM SCT140 BKN160 02/M01 A3027 RMK AO2 SLP256
                 T00201015 10040 20014 50015 $ =
2017-03-30 06:58 METAR KMUI 301058Z AUTO 00000KT 10SM OVC140 02/M02 A3025 RMK AO2 SLP249
                 T00161025 $ =
2017-03-30 05:58 METAR KMUI 300958Z AUTO 00000KT 10SM SCT140 BKN170 BKN210 02/M04 A3026 RMK AO2
                 SLP252 T00221042 $ =
2017-03-30 04:58 METAR KMUI 300858Z AUTO 00000KT 10SM BKN140 OVC160 03/M04 A3023 RMK AO2 SLP242
                 T00301045 50011 $ =
2017-03-30 03:58 METAR KMUI 300758Z AUTO VRB05KT 10SM OVC170 04/M04 A3023 RMK AO2 SLP242
                 T00361044 $ =
2017-03-30 02:58 METAR KMUI 300658Z AUTO 06007KT 10SM BKN160 04/M04 A3021 RMK AO2 SLP235
                 T00371040 $ =
2017-03-30 01:58 METAR KMUI 300558Z AUTO VRB05KT 10SM CLR 04/M04 A3019 RMK AO2 SLP228 T00421039
                 10103 20042 57011 $ =
2017-03-30 00:58 METAR KMUI 300458Z AUTO 06007KT 10SM FEW170 05/M03 A3020 RMK AO2 SLP231
                 T00501035 401350050 $ =
2017-03-29 23:58 METAR KMUI 300358Z AUTO 03006KT 10SM SCT160 SCT180 06/M03 A3022 RMK AO2 SLP238
                 T00631034 $ =
2017-03-29 22:58 METAR KMUI 300258Z AUTO 04010G15KT 10SM FEW170 07/M03 A3023 RMK AO2 SLP242
                 T00731033 52014 $ =
2017-03-29 21:58 METAR KMUI 300158Z 03005KT 10SM SCT180 08/M03 A3022 RMK AO2A SLP238 T00811033 $
                 =
2017-03-29 20:58 METAR KMUI 300058Z 03005KT 10SM SCT180 09/M03 A3020 RMK AO2A SLP231 T00881027 $
                 =
2017-03-29 19:58 METAR KMUI 292358Z 03003KT 10SM CLR 11/M03 A3018 RMK AO2A SLP225 T01051027 10135
                 20103 53017 $ =
2017-03-29 18:58 METAR KMUI 292258Z 34008G16KT 310V010 10SM SCT250 12/M03 A3015 RMK AO2A SLP214
                 T01191026 $ =
2017-03-29 17:59 METAR KMUI 292159Z AUTO 35010G17KT 310V030 10SM CLR 13/M02 A3014 RMK AO2 WSHFT
                 55 $ =
2017-03-29 17:58 METAR KMUI 292158Z 35012G17KT 310V030 10SM CLR 13/M02 A3014 RMK AO2A SLP211
                 T01291018 $ =
2017-03-29 16:58 METAR KMUI 292058Z 35008G15KT 290V040 10SM CLR 13/M01 A3013 RMK AO2A SLP207
                 T01341014 55001 $ =
2017-03-29 15:58 METAR KMUI 291958Z 34012KT 280V060 10SM CLR 13/M01 A3011 RMK AO2A SLP200
                 T01321010 $ =
2017-03-29 15:00 METAR KMUI 291900Z 35010G19KT 300V030 10SM FEW040 13/00 A3012 RMK AO2A $ =
2017-03-29 14:58 METAR KMUI 291858Z 32012G19KT 10SM FEW040 13/00 A3012 RMK AO2A SLP204 T01311003
                 $ =

Support USWX by starting your Amazon purchase here.